Time;durP1;ratioP1;P1;durP2;ratioP2;P2;SDS_P1;SDS_P2;PMS_P1;PMS_P2;Temp;Humidity;BMP_temperature;BMP_pressure;BME280_temperature;BME280_humidity;BME280_pressure;Samples;Min_cycle;Max_cycle;Signal;HPM_P1;HPM_P2
2021/01/02 00:00:07;;;;;;;10.95;9.05;;;;;;;;;;4758062;30;20205;-87
2021/01/02 00:03:21;;;;;;;9.38;8.35;;;;;;;;;;4758036;30;20193;-88
2021/01/02 00:05:57;;;;;;;8.93;7.50;;;;;;;;;;4687705;30;20213;-87
2021/01/02 00:08:27;;;;;;;11.60;9.40;;;;;;;;;;4688231;30;20215;-87
2021/01/02 00:11:33;;;;;;;16.17;8.75;;;;;;;;;;4688747;30;20288;-89
2021/01/02 00:14:10;;;;;;;12.38;10.05;;;;;;;;;;4721136;30;20213;-88
2021/01/02 00:17:15;;;;;;;11.07;8.45;;;;;;;;;;4740630;30;20214;-88
2021/01/02 00:20:07;;;;;;;9.80;8.85;;;;;;;;;;4740479;30;20209;-87
2021/01/02 00:22:44;;;;;;;13.38;10.77;;;;;;;;;;4671199;30;20219;-88
2021/01/02 00:25:12;;;;;;;13.68;9.95;;;;;;;;;;4670920;30;20212;-87
2021/01/02 00:28:16;;;;;;;12.20;8.98;;;;;;;;;;4670472;30;20215;-84
2021/01/02 00:31:35;;;;;;;12.43;9.50;;;;;;;;;;4670597;30;20216;-84
2021/01/02 00:34:55;;;;;;;11.73;9.88;;;;;;;;;;4619822;31;20240;-88
2021/01/02 00:37:29;;;;;;;12.88;9.18;;;;;;;;;;4605169;31;20234;-89
2021/01/02 00:40:12;;;;;;;14.00;10.57;;;;;;;;;;4627424;31;20256;-87
2021/01/02 00:42:41;;;;;;;11.85;8.55;;;;;;;;;;4674056;30;20210;-88
2021/01/02 00:45:13;;;;;;;10.10;8.85;;;;;;;;;;4722484;30;20503;-87
2021/01/02 00:47:41;;;;;;;11.77;8.90;;;;;;;;;;4722462;30;20516;-88
2021/01/02 00:50:11;;;;;;;10.43;8.02;;;;;;;;;;4723518;30;20218;-88
2021/01/02 00:53:24;;;;;;;13.23;9.75;;;;;;;;;;4722564;30;20569;-87
2021/01/02 00:56:13;;;;;;;9.75;8.65;;;;;;;;;;4723340;30;20338;-89
2021/01/02 00:59:39;;;;;;;11.70;8.10;;;;;;;;;;4722464;30;20233;-89
2021/01/02 01:03:06;;;;;;;9.85;7.93;;;;;;;;;;4620055;31;20277;-89
2021/01/02 01:05:35;;;;;;;11.38;9.13;;;;;;;;;;4620527;30;20222;-88
2021/01/02 01:08:04;;;;;;;15.90;9.00;;;;;;;;;;4620330;31;20194;-89
2021/01/02 01:10:32;;;;;;;10.60;8.38;;;;;;;;;;4647252;30;20595;-90
2021/01/02 01:13:06;;;;;;;10.20;8.90;;;;;;;;;;4687977;30;20294;-89
2021/01/02 01:15:34;;;;;;;13.82;9.10;;;;;;;;;;4688075;30;20215;-89
2021/01/02 01:18:24;;;;;;;12.57;10.82;;;;;;;;;;4688172;30;20230;-89
2021/01/02 01:20:58;;;;;;;12.07;9.98;;;;;;;;;;4679542;30;20254;-88
2021/01/02 01:24:08;;;;;;;14.70;9.88;;;;;;;;;;4676362;30;20212;-89
2021/01/02 01:27:03;;;;;;;11.20;8.90;;;;;;;;;;4679199;30;20219;-90
2021/01/02 01:29:44;;;;;;;11.18;8.60;;;;;;;;;;4682178;30;20226;-91
2021/01/02 01:32:11;;;;;;;12.05;9.13;;;;;;;;;;4687081;30;20207;-89
2021/01/02 01:34:39;;;;;;;9.70;8.70;;;;;;;;;;4687908;30;20254;-90
2021/01/02 01:37:07;;;;;;;11.02;9.15;;;;;;;;;;4701256;30;20214;-88
2021/01/02 01:39:38;;;;;;;12.18;9.65;;;;;;;;;;4776600;29;20296;-90
2021/01/02 01:42:07;;;;;;;11.23;9.20;;;;;;;;;;4812109;29;20203;-90
2021/01/02 01:44:52;;;;;;;14.75;9.68;;;;;;;;;;4812338;29;20483;-91
2021/01/02 01:47:34;;;;;;;12.68;9.15;;;;;;;;;;4811900;29;20251;-90
2021/01/02 01:50:25;;;;;;;11.50;10.10;;;;;;;;;;4811587;29;20210;-91
2021/01/02 01:53:40;;;;;;;12.45;9.80;;;;;;;;;;4811593;29;20238;-90
2021/01/02 01:56:25;;;;;;;11.55;9.40;;;;;;;;;;4811295;29;20183;-89
2021/01/02 01:59:22;;;;;;;11.68;10.07;;;;;;;;;;4810990;29;20227;-89
2021/01/02 02:01:55;;;;;;;11.55;9.07;;;;;;;;;;4811263;29;20225;-90
2021/01/02 02:05:10;;;;;;;11.38;9.32;;;;;;;;;;4811284;29;20218;-90
2021/01/02 02:07:47;;;;;;;11.30;8.85;;;;;;;;;;4802230;29;20222;-91
2021/01/02 02:10:17;;;;;;;10.80;8.40;;;;;;;;;;4810741;29;20328;-91
2021/01/02 02:12:53;;;;;;;10.20;8.38;;;;;;;;;;4810201;29;20222;-91
2021/01/02 02:15:23;;;;;;;11.13;8.35;;;;;;;;;;4811395;29;20213;-90
2021/01/02 02:17:53;;;;;;;10.65;8.77;;;;;;;;;;4811366;29;20480;-89
2021/01/02 02:20:24;;;;;;;10.15;8.38;;;;;;;;;;4811256;29;20274;-90
2021/01/02 02:23:07;;;;;;;9.35;7.93;;;;;;;;;;4811605;29;20297;-91
2021/01/02 02:25:47;;;;;;;9.68;8.68;;;;;;;;;;4811440;29;20202;-91
2021/01/02 02:29:00;;;;;;;12.63;10.13;;;;;;;;;;4811533;29;20293;-90
2021/01/02 02:31:27;;;;;;;8.73;7.75;;;;;;;;;;4773814;30;20265;-92
2021/01/02 02:33:57;;;;;;;9.82;8.15;;;;;;;;;;4773607;30;20269;-91
2021/01/02 02:36:27;;;;;;;11.02;9.32;;;;;;;;;;4773653;30;20221;-90
2021/01/02 02:38:58;;;;;;;11.00;8.77;;;;;;;;;;4773036;30;20508;-88
2021/01/02 02:41:30;;;;;;;12.13;9.20;;;;;;;;;;4773835;30;20196;-91
2021/01/02 02:44:00;;;;;;;10.50;8.63;;;;;;;;;;4773625;30;20254;-91
2021/01/02 02:46:31;;;;;;;12.13;8.82;;;;;;;;;;4773565;30;20192;-91
2021/01/02 02:49:02;;;;;;;11.40;8.65;;;;;;;;;;4775624;30;20208;-90
2021/01/02 02:51:35;;;;;;;12.55;8.85;;;;;;;;;;4773942;30;20299;-91
2021/01/02 02:54:03;;;;;;;11.25;9.20;;;;;;;;;;4775269;30;20583;-89
2021/01/02 02:56:30;;;;;;;9.80;8.80;;;;;;;;;;4774240;30;20272;-90
2021/01/02 02:58:57;;;;;;;13.10;9.68;;;;;;;;;;4773654;30;20245;-92
2021/01/02 03:01:24;;;;;;;10.23;8.38;;;;;;;;;;4774336;30;20216;-91
2021/01/02 03:03:51;;;;;;;10.65;8.75;;;;;;;;;;4773748;30;20211;-90
2021/01/02 03:06:18;;;;;;;11.70;8.60;;;;;;;;;;4773314;30;20216;-89
2021/01/02 03:08:47;;;;;;;11.80;9.48;;;;;;;;;;4796284;29;20218;-90
2021/01/02 03:11:15;;;;;;;9.38;8.23;;;;;;;;;;4810777;29;20217;-90
2021/01/02 03:13:44;;;;;;;11.93;9.75;;;;;;;;;;4811918;29;20203;-89
2021/01/02 03:16:11;;;;;;;12.00;9.02;;;;;;;;;;4817131;29;20212;-92
2021/01/02 03:18:38;;;;;;;11.15;9.30;;;;;;;;;;4815288;29;20226;-90
2021/01/02 03:21:05;;;;;;;10.73;9.00;;;;;;;;;;4814446;29;20227;-90
2021/01/02 03:23:43;;;;;;;11.13;8.73;;;;;;;;;;4812555;29;20206;-90
2021/01/02 03:26:10;;;;;;;10.15;8.80;;;;;;;;;;4816835;29;20265;-92
2021/01/02 03:28:38;;;;;;;10.57;8.57;;;;;;;;;;4816624;29;20273;-90
2021/01/02 03:31:05;;;;;;;10.45;9.15;;;;;;;;;;4813138;29;20569;-89
2021/01/02 03:33:33;;;;;;;11.27;8.32;;;;;;;;;;4813178;29;20541;-88
2021/01/02 03:36:02;;;;;;;12.13;10.38;;;;;;;;;;4812771;29;20532;-89
2021/01/02 03:38:34;;;;;;;9.57;8.30;;;;;;;;;;4813776;29;20504;-90
2021/01/02 03:41:01;;;;;;;11.02;9.23;;;;;;;;;;4812047;29;20240;-88
2021/01/02 03:43:28;;;;;;;10.02;8.68;;;;;;;;;;4812810;29;20206;-89
2021/01/02 03:45:57;;;;;;;12.95;8.93;;;;;;;;;;4814366;29;20194;-89
2021/01/02 03:48:24;;;;;;;10.00;8.40;;;;;;;;;;4816548;29;20209;-89
2021/01/02 03:50:51;;;;;;;9.43;8.52;;;;;;;;;;4816501;29;20190;-89
2021/01/02 03:53:18;;;;;;;10.77;9.23;;;;;;;;;;4816947;29;20294;-89
2021/01/02 03:55:46;;;;;;;10.27;8.75;;;;;;;;;;4816551;29;20191;-89
2021/01/02 03:58:13;;;;;;;9.70;7.85;;;;;;;;;;4816063;29;20613;-90
2021/01/02 04:00:40;;;;;;;12.77;9.07;;;;;;;;;;4815907;29;20198;-89
2021/01/02 04:03:09;;;;;;;18.77;8.30;;;;;;;;;;4816318;29;20214;-91
2021/01/02 04:05:36;;;;;;;11.77;8.57;;;;;;;;;;4813970;29;20203;-90
2021/01/02 04:08:03;;;;;;;11.63;8.32;;;;;;;;;;4813722;29;20213;-89
2021/01/02 04:10:30;;;;;;;8.48;7.32;;;;;;;;;;4812728;29;20613;-90
2021/01/02 04:12:57;;;;;;;11.32;7.57;;;;;;;;;;4813163;29;20191;-90
2021/01/02 04:15:24;;;;;;;10.77;8.52;;;;;;;;;;4813373;29;20277;-90
2021/01/02 04:17:51;;;;;;;10.23;8.60;;;;;;;;;;4813204;29;20265;-89
2021/01/02 04:20:19;;;;;;;12.07;9.80;;;;;;;;;;4812730;29;20221;-91
2021/01/02 04:22:46;;;;;;;11.13;7.95;;;;;;;;;;4813130;29;20210;-90
2021/01/02 04:25:13;;;;;;;11.48;8.30;;;;;;;;;;4813170;29;20217;-91
2021/01/02 04:27:40;;;;;;;7.70;6.90;;;;;;;;;;4813170;29;20191;-90
2021/01/02 04:30:08;;;;;;;9.25;7.40;;;;;;;;;;4813026;29;20211;-89
2021/01/02 04:32:35;;;;;;;10.00;8.95;;;;;;;;;;4813091;29;20213;-89
2021/01/02 04:35:02;;;;;;;7.00;6.28;;;;;;;;;;4813160;29;20198;-89
2021/01/02 04:37:31;;;;;;;8.57;7.53;;;;;;;;;;4813595;29;20471;-90
2021/01/02 04:39:58;;;;;;;10.45;7.28;;;;;;;;;;4813124;29;20246;-89
2021/01/02 04:42:25;;;;;;;8.07;6.97;;;;;;;;;;4813438;29;20229;-89
2021/01/02 04:44:53;;;;;;;8.20;6.72;;;;;;;;;;4812726;29;20190;-90
2021/01/02 04:47:21;;;;;;;9.02;7.43;;;;;;;;;;4813012;29;20282;-88
2021/01/02 04:49:48;;;;;;;8.40;7.10;;;;;;;;;;4813288;29;20206;-90
2021/01/02 04:52:17;;;;;;;10.07;7.45;;;;;;;;;;4813072;29;20202;-89
2021/01/02 04:54:50;;;;;;;9.70;7.78;;;;;;;;;;4812767;29;20202;-89
2021/01/02 04:57:17;;;;;;;8.77;7.93;;;;;;;;;;4812778;29;20203;-89
2021/01/02 04:59:49;;;;;;;8.90;7.95;;;;;;;;;;4813199;29;20229;-90
2021/01/02 05:02:19;;;;;;;9.07;8.18;;;;;;;;;;4813130;29;20202;-89
2021/01/02 05:04:50;;;;;;;9.75;7.28;;;;;;;;;;4813040;29;20282;-91
2021/01/02 05:07:25;;;;;;;9.70;7.75;;;;;;;;;;4813297;29;20211;-90
2021/01/02 05:09:54;;;;;;;9.00;7.85;;;;;;;;;;4812793;29;20237;-90
2021/01/02 05:12:29;;;;;;;9.52;7.55;;;;;;;;;;4812270;29;20540;-89
2021/01/02 05:15:06;;;;;;;9.68;7.60;;;;;;;;;;4812670;29;20210;-90
2021/01/02 05:17:33;;;;;;;9.60;7.78;;;;;;;;;;4812867;29;20210;-90
2021/01/02 05:20:06;;;;;;;10.65;8.13;;;;;;;;;;4812069;29;20211;-90
2021/01/02 05:22:34;;;;;;;8.82;7.70;;;;;;;;;;4813301;29;20252;-91
2021/01/02 05:25:17;;;;;;;10.18;7.93;;;;;;;;;;4812616;29;20183;-90
2021/01/02 05:27:46;;;;;;;8.70;6.75;;;;;;;;;;4812628;29;20210;-90
2021/01/02 05:30:16;;;;;;;10.05;7.18;;;;;;;;;;4812674;29;20270;-89
2021/01/02 05:33:11;;;;;;;7.85;7.05;;;;;;;;;;4812759;29;20213;-89
2021/01/02 05:35:43;;;;;;;8.45;7.47;;;;;;;;;;4740287;30;20213;-89
2021/01/02 05:38:12;;;;;;;7.68;6.78;;;;;;;;;;4739297;30;20202;-89
2021/01/02 05:40:42;;;;;;;8.48;6.88;;;;;;;;;;4739088;30;20252;-90
2021/01/02 05:43:09;;;;;;;8.85;7.43;;;;;;;;;;4739338;30;20611;-90
2021/01/02 05:45:36;;;;;;;9.23;8.15;;;;;;;;;;4740094;30;20209;-93
2021/01/02 05:48:22;;;;;;;8.52;7.30;;;;;;;;;;4739675;30;20302;-93
2021/01/02 05:50:52;;;;;;;9.57;7.30;;;;;;;;;;4739694;30;20214;-92
2021/01/02 05:53:28;;;;;;;8.70;7.63;;;;;;;;;;4739507;30;20306;-92
2021/01/02 05:56:02;;;;;;;7.15;6.45;;;;;;;;;;4739699;30;20223;-92
2021/01/02 05:58:30;;;;;;;8.13;7.22;;;;;;;;;;4739131;30;20300;-93
2021/01/02 06:01:09;;;;;;;9.60;7.50;;;;;;;;;;4739428;30;20233;-92
2021/01/02 06:03:37;;;;;;;10.90;7.63;;;;;;;;;;4739695;30;20217;-92
2021/01/02 06:06:07;;;;;;;10.50;8.45;;;;;;;;;;4739134;30;20580;-93
2021/01/02 06:08:40;;;;;;;10.35;7.63;;;;;;;;;;4739436;30;20217;-92
2021/01/02 06:11:11;;;;;;;9.80;7.57;;;;;;;;;;4766589;29;20245;-92
2021/01/02 06:13:41;;;;;;;8.65;7.50;;;;;;;;;;4811754;29;20210;-92
2021/01/02 06:16:09;;;;;;;9.70;7.32;;;;;;;;;;4812437;29;20206;-91
2021/01/02 06:18:39;;;;;;;9.95;8.00;;;;;;;;;;4811644;29;20207;-92
2021/01/02 06:21:09;;;;;;;9.15;7.47;;;;;;;;;;4811577;29;20234;-91
2021/01/02 06:23:38;;;;;;;7.50;6.75;;;;;;;;;;4812128;29;20206;-90
2021/01/02 06:26:06;;;;;;;10.23;7.82;;;;;;;;;;4812180;29;20210;-92
2021/01/02 06:28:37;;;;;;;8.98;7.50;;;;;;;;;;4811272;29;20573;-91
2021/01/02 06:31:08;;;;;;;8.68;7.72;;;;;;;;;;4811755;29;20202;-91
2021/01/02 06:33:36;;;;;;;9.98;8.23;;;;;;;;;;4811779;29;20210;-89
2021/01/02 06:36:04;;;;;;;9.20;7.93;;;;;;;;;;4812332;29;20207;-92
2021/01/02 06:38:31;;;;;;;10.55;7.55;;;;;;;;;;4811763;29;20547;-91
2021/01/02 06:40:59;;;;;;;8.63;7.78;;;;;;;;;;4810874;29;20253;-90
2021/01/02 06:43:40;;;;;;;9.35;7.07;;;;;;;;;;4811717;29;20243;-91
2021/01/02 06:46:12;;;;;;;9.10;8.05;;;;;;;;;;4811838;29;20202;-92
2021/01/02 06:48:41;;;;;;;9.70;7.75;;;;;;;;;;4812185;29;20214;-92
2021/01/02 06:51:32;;;;;;;11.02;7.70;;;;;;;;;;4811835;29;20298;-92
2021/01/02 06:54:03;;;;;;;11.30;8.40;;;;;;;;;;4811927;29;20584;-93
2021/01/02 06:56:35;;;;;;;10.20;7.65;;;;;;;;;;4811239;29;20236;-93
2021/01/02 06:59:05;;;;;;;9.32;8.32;;;;;;;;;;4811594;29;20234;-92
2021/01/02 07:01:48;;;;;;;9.73;7.95;;;;;;;;;;4811317;29;20240;-91
2021/01/02 07:04:15;;;;;;;7.43;6.38;;;;;;;;;;4812005;29;20210;-93
2021/01/02 07:06:43;;;;;;;8.45;7.22;;;;;;;;;;4811495;29;20235;-92
2021/01/02 07:09:27;;;;;;;7.60;5.97;;;;;;;;;;4811018;29;20538;-92
2021/01/02 07:12:15;;;;;;;10.90;7.13;;;;;;;;;;4811754;29;20560;-90
2021/01/02 07:14:44;;;;;;;9.15;6.80;;;;;;;;;;4812071;29;20275;-92
2021/01/02 07:17:13;;;;;;;7.60;5.70;;;;;;;;;;4811482;29;20190;-91
2021/01/02 07:19:50;;;;;;;7.47;6.45;;;;;;;;;;4811269;29;20287;-91
2021/01/02 07:22:38;;;;;;;8.80;7.90;;;;;;;;;;4814239;29;20194;-90
2021/01/02 07:25:08;;;;;;;8.68;6.72;;;;;;;;;;4814121;29;20274;-91
2021/01/02 07:27:37;;;;;;;9.82;7.15;;;;;;;;;;4814500;29;20227;-91
2021/01/02 07:30:10;;;;;;;7.63;6.80;;;;;;;;;;4814955;29;20211;-92
2021/01/02 07:32:38;;;;;;;8.63;6.60;;;;;;;;;;4814706;29;20206;-91
2021/01/02 07:35:09;;;;;;;8.73;6.85;;;;;;;;;;4814867;29;20206;-91
2021/01/02 07:37:38;;;;;;;7.05;6.43;;;;;;;;;;4813946;29;20635;-91
2021/01/02 07:40:07;;;;;;;9.68;6.85;;;;;;;;;;4813982;29;20246;-92
2021/01/02 07:42:36;;;;;;;10.23;8.02;;;;;;;;;;4814547;29;20238;-90
2021/01/02 07:45:08;;;;;;;8.50;6.93;;;;;;;;;;4814022;29;20231;-90
2021/01/02 07:47:36;;;;;;;7.45;6.68;;;;;;;;;;4814469;29;20263;-92
2021/01/02 07:50:10;;;;;;;8.23;6.28;;;;;;;;;;4814171;29;20232;-90
2021/01/02 07:52:37;;;;;;;7.32;6.55;;;;;;;;;;4814397;29;20195;-90
2021/01/02 07:55:09;;;;;;;8.25;6.85;;;;;;;;;;4814544;29;20536;-90
2021/01/02 07:57:36;;;;;;;11.57;7.43;;;;;;;;;;4814334;29;20459;-89
2021/01/02 08:00:09;;;;;;;10.38;8.65;;;;;;;;;;4814102;29;20230;-89
2021/01/02 08:02:40;;;;;;;11.13;8.85;;;;;;;;;;4814120;29;20216;-89
2021/01/02 08:05:10;;;;;;;9.02;7.43;;;;;;;;;;4814065;29;20449;-89
2021/01/02 08:07:37;;;;;;;8.57;7.15;;;;;;;;;;4814022;29;20553;-90
2021/01/02 08:10:08;;;;;;;8.52;6.63;;;;;;;;;;4813616;29;20234;-89
2021/01/02 08:12:36;;;;;;;9.55;6.63;;;;;;;;;;4813954;29;20234;-90
2021/01/02 08:15:05;;;;;;;8.20;6.90;;;;;;;;;;4813632;29;20214;-90
2021/01/02 08:17:40;;;;;;;8.07;6.47;;;;;;;;;;4814045;29;20212;-91
2021/01/02 08:20:09;;;;;;;10.98;6.00;;;;;;;;;;4813798;29;20540;-91
2021/01/02 08:22:38;;;;;;;6.70;5.97;;;;;;;;;;4814162;29;20219;-90
2021/01/02 08:25:10;;;;;;;9.48;7.53;;;;;;;;;;4814062;29;20218;-90
2021/01/02 08:27:37;;;;;;;8.25;7.38;;;;;;;;;;4813058;29;20205;-89
2021/01/02 08:30:09;;;;;;;6.80;6.10;;;;;;;;;;4813326;29;20538;-91
2021/01/02 08:32:39;;;;;;;5.88;5.28;;;;;;;;;;4813347;29;20290;-91
2021/01/02 08:35:17;;;;;;;7.07;5.95;;;;;;;;;;4813019;29;20183;-90
2021/01/02 08:37:45;;;;;;;7.55;5.38;;;;;;;;;;4813757;29;20206;-90
2021/01/02 08:40:15;;;;;;;7.13;5.75;;;;;;;;;;4810773;29;20516;-90
2021/01/02 08:42:44;;;;;;;10.75;8.40;;;;;;;;;;4813600;29;20542;-90
2021/01/02 08:45:14;;;;;;;12.40;10.73;;;;;;;;;;4813453;29;20215;-90
2021/01/02 08:47:42;;;;;;;12.93;10.15;;;;;;;;;;4812986;29;20195;-90
2021/01/02 08:50:14;;;;;;;11.68;9.85;;;;;;;;;;4813500;29;20512;-89
2021/01/02 08:52:43;;;;;;;11.15;8.73;;;;;;;;;;4813301;29;20221;-90
2021/01/02 08:55:14;;;;;;;10.80;8.38;;;;;;;;;;4813835;29;20221;-90
2021/01/02 08:57:46;;;;;;;10.85;8.85;;;;;;;;;;4813054;29;20220;-90
2021/01/02 09:00:22;;;;;;;9.57;7.75;;;;;;;;;;4813152;29;20214;-89
2021/01/02 09:03:07;;;;;;;10.65;7.97;;;;;;;;;;4813159;29;20245;-91
2021/01/02 09:05:36;;;;;;;10.35;8.13;;;;;;;;;;4813055;29;20546;-90
2021/01/02 09:08:05;;;;;;;10.98;9.13;;;;;;;;;;4813038;29;20210;-89
2021/01/02 09:10:35;;;;;;;12.27;10.38;;;;;;;;;;4812683;29;20548;-90
2021/01/02 09:13:12;;;;;;;11.55;8.88;;;;;;;;;;4812893;29;20294;-89
2021/01/02 09:15:53;;;;;;;10.27;8.23;;;;;;;;;;4812540;29;20187;-89
2021/01/02 09:18:44;;;;;;;11.85;8.20;;;;;;;;;;4813095;29;20210;-91
2021/01/02 09:21:23;;;;;;;9.80;7.88;;;;;;;;;;4812502;29;20219;-87
2021/01/02 09:23:50;;;;;;;10.80;9.05;;;;;;;;;;4812695;29;20522;-88
2021/01/02 09:26:25;;;;;;;10.55;8.85;;;;;;;;;;4812259;29;20187;-88
2021/01/02 09:28:54;;;;;;;11.95;9.95;;;;;;;;;;4813211;29;20214;-88
2021/01/02 09:31:21;;;;;;;14.02;9.10;;;;;;;;;;4812614;29;20217;-88
2021/01/02 09:33:50;;;;;;;11.90;9.55;;;;;;;;;;4812145;29;20191;-87
2021/01/02 09:36:19;;;;;;;10.23;8.38;;;;;;;;;;4812255;29;20264;-90
2021/01/02 09:38:47;;;;;;;10.55;8.38;;;;;;;;;;4811717;29;20299;-87
2021/01/02 09:41:17;;;;;;;9.65;7.95;;;;;;;;;;4811835;29;20244;-89
2021/01/02 09:43:44;;;;;;;10.57;9.05;;;;;;;;;;4811087;29;20631;-89
2021/01/02 09:46:16;;;;;;;11.30;8.40;;;;;;;;;;4812622;29;20206;-90
2021/01/02 09:48:45;;;;;;;12.48;9.10;;;;;;;;;;4811995;29;20266;-89
2021/01/02 09:51:12;;;;;;;12.68;9.57;;;;;;;;;;4812311;29;20221;-90
2021/01/02 09:53:39;;;;;;;10.88;9.38;;;;;;;;;;4811873;29;20206;-89
2021/01/02 09:56:06;;;;;;;15.00;9.90;;;;;;;;;;4812419;29;20286;-90
2021/01/02 09:58:34;;;;;;;11.27;9.50;;;;;;;;;;4812469;29;20262;-90
2021/01/02 10:01:02;;;;;;;14.68;10.32;;;;;;;;;;4811647;29;20222;-90
2021/01/02 10:03:29;;;;;;;11.43;10.10;;;;;;;;;;4811815;29;20202;-91
2021/01/02 10:05:56;;;;;;;12.30;9.80;;;;;;;;;;4811655;29;20202;-90
2021/01/02 10:08:24;;;;;;;10.35;9.07;;;;;;;;;;4811435;29;20218;-91
2021/01/02 10:10:51;;;;;;;11.50;9.63;;;;;;;;;;4811749;29;20227;-91
2021/01/02 10:13:19;;;;;;;10.23;9.10;;;;;;;;;;4812135;29;20195;-90
2021/01/02 10:15:47;;;;;;;10.85;9.63;;;;;;;;;;4811573;29;20503;-91
2021/01/02 10:18:15;;;;;;;14.75;11.38;;;;;;;;;;4811578;29;20187;-91
2021/01/02 10:20:41;;;;;;;13.25;9.98;;;;;;;;;;4811381;29;20641;-92
2021/01/02 10:23:08;;;;;;;11.63;10.23;;;;;;;;;;4811452;29;20191;-92
2021/01/02 10:25:35;;;;;;;11.68;9.75;;;;;;;;;;4811923;29;20478;-90
2021/01/02 10:28:03;;;;;;;13.23;9.75;;;;;;;;;;4811510;29;20219;-89
2021/01/02 10:30:29;;;;;;;12.80;10.38;;;;;;;;;;4809702;29;20207;-88
2021/01/02 10:32:57;;;;;;;11.95;9.98;;;;;;;;;;4811338;29;20217;-89
2021/01/02 10:35:24;;;;;;;11.60;9.50;;;;;;;;;;4810942;29;20211;-86
2021/01/02 10:37:53;;;;;;;10.07;9.00;;;;;;;;;;4811176;29;20195;-89
2021/01/02 10:40:20;;;;;;;9.25;8.35;;;;;;;;;;4810559;29;20498;-88
2021/01/02 10:42:47;;;;;;;11.23;8.93;;;;;;;;;;4811395;29;20608;-89
2021/01/02 10:45:17;;;;;;;12.45;8.73;;;;;;;;;;4810805;29;20191;-89
2021/01/02 10:47:44;;;;;;;11.52;9.18;;;;;;;;;;4811440;29;20194;-88
2021/01/02 10:50:13;;;;;;;11.05;8.98;;;;;;;;;;4811800;29;20198;-89
2021/01/02 10:52:40;;;;;;;12.57;8.20;;;;;;;;;;4811711;29;20198;-88
2021/01/02 10:55:08;;;;;;;9.45;8.43;;;;;;;;;;4812742;29;20202;-88
2021/01/02 10:57:35;;;;;;;11.05;9.32;;;;;;;;;;4814081;29;20206;-89
2021/01/02 11:00:04;;;;;;;9.07;8.10;;;;;;;;;;4814770;29;20195;-89
2021/01/02 11:02:31;;;;;;;9.80;8.85;;;;;;;;;;4814606;29;20259;-90
2021/01/02 11:04:58;;;;;;;12.00;8.95;;;;;;;;;;4813946;29;20198;-88
2021/01/02 11:07:26;;;;;;;12.18;9.40;;;;;;;;;;4814739;29;20210;-90
2021/01/02 11:09:54;;;;;;;11.05;9.18;;;;;;;;;;4814167;29;20248;-91
2021/01/02 11:12:22;;;;;;;10.82;8.27;;;;;;;;;;4814782;29;20211;-91
2021/01/02 11:14:49;;;;;;;9.10;8.18;;;;;;;;;;4814216;29;20440;-91
2021/01/02 11:17:16;;;;;;;10.60;9.60;;;;;;;;;;4814489;29;20193;-92
2021/01/02 11:19:45;;;;;;;9.77;8.60;;;;;;;;;;4815217;29;20195;-92
2021/01/02 11:22:13;;;;;;;11.52;9.27;;;;;;;;;;4814455;29;20469;-90
2021/01/02 11:24:43;;;;;;;12.32;10.10;;;;;;;;;;4814605;29;20206;-90
2021/01/02 11:27:11;;;;;;;12.27;10.25;;;;;;;;;;4815076;29;20207;-91
2021/01/02 11:29:38;;;;;;;11.55;10.10;;;;;;;;;;4814971;29;20198;-91
2021/01/02 11:32:09;;;;;;;12.88;10.48;;;;;;;;;;4814603;29;20186;-91
2021/01/02 11:34:36;;;;;;;12.65;9.90;;;;;;;;;;4813982;29;20557;-91
2021/01/02 11:37:08;;;;;;;12.35;9.30;;;;;;;;;;4814191;29;20187;-90
2021/01/02 11:39:35;;;;;;;11.52;8.57;;;;;;;;;;4813687;29;20559;-91
2021/01/02 11:42:06;;;;;;;12.00;8.93;;;;;;;;;;4814670;29;20230;-90
2021/01/02 11:44:33;;;;;;;9.90;8.52;;;;;;;;;;4812400;29;20206;-91
2021/01/02 11:47:01;;;;;;;10.88;8.68;;;;;;;;;;4813836;29;20203;-92
2021/01/02 11:49:31;;;;;;;10.88;9.27;;;;;;;;;;4813672;29;20198;-91
2021/01/02 11:52:00;;;;;;;10.52;8.90;;;;;;;;;;4813893;29;20198;-91
2021/01/02 11:54:30;;;;;;;14.15;10.55;;;;;;;;;;4814345;29;20225;-91
2021/01/02 11:56:58;;;;;;;11.52;9.02;;;;;;;;;;4814179;29;20210;-91
2021/01/02 11:59:26;;;;;;;15.10;10.95;;;;;;;;;;4813576;29;20216;-90
2021/01/02 12:01:56;;;;;;;11.05;9.18;;;;;;;;;;4811729;29;20215;-91
2021/01/02 12:04:25;;;;;;;13.98;10.52;;;;;;;;;;4813788;29;20206;-90
2021/01/02 12:06:52;;;;;;;12.95;9.68;;;;;;;;;;4812917;29;20191;-91
2021/01/02 12:09:22;;;;;;;11.63;9.65;;;;;;;;;;4813588;29;20230;-92
2021/01/02 12:11:50;;;;;;;12.93;10.55;;;;;;;;;;4814232;29;20218;-93
2021/01/02 12:14:20;;;;;;;13.32;10.10;;;;;;;;;;4814145;29;20191;-91
2021/01/02 12:16:50;;;;;;;11.40;9.77;;;;;;;;;;4813252;29;20450;-87
2021/01/02 12:19:20;;;;;;;12.70;10.75;;;;;;;;;;4813054;29;20217;-86
2021/01/02 12:21:47;;;;;;;12.43;11.10;;;;;;;;;;4812999;29;20211;-86
2021/01/02 12:24:14;;;;;;;12.95;10.65;;;;;;;;;;4813424;29;20290;-88
2021/01/02 12:26:46;;;;;;;14.30;11.68;;;;;;;;;;4813683;29;20281;-89
2021/01/02 12:29:14;;;;;;;12.35;10.93;;;;;;;;;;4812975;29;20574;-89
2021/01/02 12:31:43;;;;;;;13.20;9.73;;;;;;;;;;4813296;29;20213;-88
2021/01/02 12:34:11;;;;;;;11.98;9.77;;;;;;;;;;4813719;29;20199;-89
2021/01/02 12:36:42;;;;;;;13.95;11.05;;;;;;;;;;4813183;29;20260;-88
2021/01/02 12:39:11;;;;;;;13.98;10.50;;;;;;;;;;4813077;29;20253;-88
2021/01/02 12:41:38;;;;;;;14.32;10.95;;;;;;;;;;4813348;29;20187;-88
2021/01/02 12:44:09;;;;;;;14.23;10.88;;;;;;;;;;4810880;29;20203;-88
2021/01/02 12:46:38;;;;;;;12.70;10.57;;;;;;;;;;4813007;29;20214;-88
2021/01/02 12:49:06;;;;;;;14.35;11.20;;;;;;;;;;4813729;29;20221;-88
2021/01/02 12:51:35;;;;;;;18.10;12.57;;;;;;;;;;4813367;29;20220;-90
2021/01/02 12:54:02;;;;;;;16.90;12.77;;;;;;;;;;4812408;29;20183;-89
2021/01/02 12:56:29;;;;;;;14.23;12.45;;;;;;;;;;4812246;29;20271;-87
2021/01/02 12:58:56;;;;;;;14.73;12.00;;;;;;;;;;4812871;29;20203;-90
2021/01/02 13:01:23;;;;;;;16.33;12.45;;;;;;;;;;4812678;29;20203;-86
2021/01/02 13:03:50;;;;;;;16.10;13.27;;;;;;;;;;4812298;29;20219;-89
2021/01/02 13:06:18;;;;;;;16.33;13.07;;;;;;;;;;4812533;29;20218;-88
2021/01/02 13:08:46;;;;;;;15.40;13.35;;;;;;;;;;4812372;29;20183;-87
2021/01/02 13:11:14;;;;;;;15.57;12.88;;;;;;;;;;4811995;29;20214;-90
2021/01/02 13:13:42;;;;;;;15.32;12.23;;;;;;;;;;4812372;29;20205;-89
2021/01/02 13:16:12;;;;;;;14.15;11.57;;;;;;;;;;4781491;29;20210;-89
2021/01/02 13:18:39;;;;;;;19.40;12.02;;;;;;;;;;4811405;29;20206;-89
2021/01/02 13:21:08;;;;;;;14.20;10.50;;;;;;;;;;4812219;29;20470;-91
2021/01/02 13:23:37;;;;;;;14.73;11.90;;;;;;;;;;4812144;29;20230;-88
2021/01/02 13:26:06;;;;;;;18.05;13.15;;;;;;;;;;4811925;29;20267;-86
2021/01/02 13:28:33;;;;;;;17.35;13.77;;;;;;;;;;4811820;29;20201;-87
2021/01/02 13:31:00;;;;;;;17.40;12.63;;;;;;;;;;4811831;29;20293;-86
2021/01/02 13:33:28;;;;;;;17.67;13.85;;;;;;;;;;4811724;29;20191;-86
2021/01/02 13:35:55;;;;;;;19.52;13.50;;;;;;;;;;4811818;29;20263;-84
2021/01/02 13:38:22;;;;;;;16.80;13.13;;;;;;;;;;4811059;29;20214;-87
2021/01/02 13:40:49;;;;;;;17.50;13.73;;;;;;;;;;4811604;29;20215;-90
2021/01/02 13:43:17;;;;;;;18.30;13.38;;;;;;;;;;4811730;29;20480;-88
2021/01/02 13:45:44;;;;;;;15.57;12.57;;;;;;;;;;4812647;29;20565;-89
2021/01/02 13:48:11;;;;;;;15.77;12.95;;;;;;;;;;4811593;29;20210;-88
2021/01/02 13:50:38;;;;;;;16.55;12.38;;;;;;;;;;4811668;29;20214;-88
2021/01/02 13:53:05;;;;;;;20.08;13.55;;;;;;;;;;4811409;29;20209;-89
2021/01/02 13:55:32;;;;;;;27.25;17.67;;;;;;;;;;4811433;29;20211;-86
2021/01/02 13:57:59;;;;;;;13.82;11.20;;;;;;;;;;4811251;29;20302;-89
2021/01/02 14:00:27;;;;;;;16.33;11.57;;;;;;;;;;4812095;29;20484;-91
2021/01/02 14:02:54;;;;;;;16.63;10.13;;;;;;;;;;4810930;29;20264;-92
2021/01/02 14:05:22;;;;;;;12.05;10.50;;;;;;;;;;4808269;29;20218;-90
2021/01/02 14:07:48;;;;;;;13.95;10.35;;;;;;;;;;4811146;29;20202;-90
2021/01/02 14:10:16;;;;;;;14.05;10.65;;;;;;;;;;4811224;29;20234;-92
2021/01/02 14:12:43;;;;;;;15.45;10.57;;;;;;;;;;4811292;29;20210;-91
2021/01/02 14:15:12;;;;;;;14.63;10.52;;;;;;;;;;4810779;29;20282;-91
2021/01/02 14:17:40;;;;;;;12.98;11.05;;;;;;;;;;4809206;29;20241;-92
2021/01/02 14:20:09;;;;;;;11.98;8.98;;;;;;;;;;4810611;29;20202;-92
2021/01/02 14:22:37;;;;;;;12.60;9.52;;;;;;;;;;4811080;29;20313;-93
2021/01/02 14:25:06;;;;;;;10.35;8.27;;;;;;;;;;4810738;29;20562;-92
2021/01/02 14:27:33;;;;;;;13.68;9.30;;;;;;;;;;4810513;29;20565;-89
2021/01/02 14:30:01;;;;;;;11.30;9.55;;;;;;;;;;4811016;29;20284;-88
2021/01/02 14:32:28;;;;;;;11.25;10.05;;;;;;;;;;4811058;29;20231;-85
2021/01/02 14:34:56;;;;;;;11.80;9.25;;;;;;;;;;4810919;29;20202;-88
2021/01/02 14:37:23;;;;;;;11.57;9.18;;;;;;;;;;4810852;29;20187;-93
2021/01/02 14:39:49;;;;;;;11.20;9.63;;;;;;;;;;4810972;29;20238;-93
2021/01/02 14:42:16;;;;;;;11.45;9.18;;;;;;;;;;4811344;29;20631;-92
2021/01/02 14:44:43;;;;;;;12.75;9.43;;;;;;;;;;4811130;29;20488;-92
2021/01/02 14:47:11;;;;;;;10.70;9.00;;;;;;;;;;4811114;29;20214;-93
2021/01/02 14:49:38;;;;;;;12.43;9.38;;;;;;;;;;4810907;29;20231;-91
2021/01/02 14:52:08;;;;;;;12.13;9.77;;;;;;;;;;4810801;29;20219;-93
2021/01/02 14:54:35;;;;;;;12.75;10.02;;;;;;;;;;4810443;29;20293;-94
2021/01/02 14:57:04;;;;;;;12.18;9.70;;;;;;;;;;4810367;29;20195;-91